Time;durP1;ratioP1;P1;durP2;ratioP2;P2;SDS_P1;SDS_P2;PMS_P1;PMS_P2;Temp;Humidity;BMP_temperature;BMP_pressure;BME280_temperature;BME280_humidity;BME280_pressure;Samples;Min_cycle;Max_cycle;Signal;HPM_P1;HPM_P2
2022/01/09 00:01:14;;;;;;;12.80;11.63;;;5.20;95.20;;;;;;5082272;27;20039;-85
2022/01/09 00:03:40;;;;;;;11.52;10.38;;;5.20;95.20;;;;;;5079331;27;20550;-86
2022/01/09 00:06:05;;;;;;;12.30;11.10;;;5.20;95.20;;;;;;5102938;27;20078;-84
2022/01/09 00:08:31;;;;;;;12.15;10.95;;;5.20;95.20;;;;;;5083318;27;20554;-83
2022/01/09 00:10:57;;;;;;;11.52;10.43;;;5.20;95.20;;;;;;5098923;27;20098;-82
2022/01/09 00:13:23;;;;;;;11.63;10.40;;;5.30;95.30;;;;;;5085806;27;20080;-83
2022/01/09 00:15:48;;;;;;;12.88;11.60;;;5.20;95.30;;;;;;5116684;27;20035;-82
2022/01/09 00:18:14;;;;;;;11.82;10.70;;;5.30;95.30;;;;;;5107465;27;20043;-82
2022/01/09 00:20:40;;;;;;;12.57;10.95;;;5.30;95.30;;;;;;5087733;27;20043;-78
2022/01/09 00:23:05;;;;;;;12.93;11.50;;;5.30;95.30;;;;;;5098836;27;20077;-83
2022/01/09 00:25:31;;;;;;;12.05;10.95;;;5.30;95.30;;;;;;5088788;27;20080;-83
2022/01/09 00:27:57;;;;;;;12.43;11.23;;;5.30;95.30;;;;;;5105421;27;20074;-83
2022/01/09 00:30:23;;;;;;;12.75;11.50;;;5.30;95.30;;;;;;5102944;27;20056;-83
2022/01/09 00:32:53;;;;;;;12.43;11.00;;;5.30;95.30;;;;;;5093004;27;20165;-85
2022/01/09 00:35:18;;;;;;;12.07;10.88;;;5.30;95.30;;;;;;5109042;27;20094;-82
2022/01/09 00:37:44;;;;;;;11.63;10.48;;;5.30;95.30;;;;;;5136026;27;20054;-85
2022/01/09 00:40:13;;;;;;;11.75;10.55;;;5.20;95.10;;;;;;5153116;27;20043;-83
2022/01/09 00:42:39;;;;;;;12.55;11.18;;;5.30;95.70;;;;;;5096658;27;20051;-83
2022/01/09 00:45:05;;;;;;;11.85;10.75;;;5.30;95.30;;;;;;5095598;27;20498;-83
2022/01/09 00:47:31;;;;;;;11.90;10.73;;;5.30;95.30;;;;;;5109797;27;20055;-83
2022/01/09 00:49:58;;;;;;;13.02;11.10;;;5.30;95.30;;;;;;5126081;27;20064;-83
2022/01/09 00:52:23;;;;;;;10.98;9.88;;;5.30;95.30;;;;;;5118586;27;20134;-84
2022/01/09 00:54:49;;;;;;;12.23;10.65;;;5.30;95.30;;;;;;5101440;27;20038;-83
2022/01/09 00:57:15;;;;;;;13.43;11.68;;;5.30;95.30;;;;;;5097288;27;20074;-83
2022/01/09 00:59:40;;;;;;;12.27;11.05;;;5.30;95.30;;;;;;5125633;27;20061;-83
2022/01/09 01:02:06;;;;;;;12.70;11.40;;;5.30;95.30;;;;;;5085764;27;20106;-82
2022/01/09 01:04:32;;;;;;;12.70;11.43;;;5.30;95.40;;;;;;5099582;27;20046;-84
2022/01/09 01:06:57;;;;;;;12.98;11.60;;;5.40;95.40;;;;;;5104717;27;20052;-83
2022/01/09 01:09:30;;;;;;;14.05;12.65;;;5.40;95.40;;;;;;5107530;27;20478;-83
2022/01/09 01:11:57;;;;;;;14.95;13.55;;;5.40;95.40;;;;;;5124860;27;20505;-83
2022/01/09 01:14:32;;;;;;;13.25;12.05;;;5.30;95.40;;;;;;5109864;27;20050;-83
2022/01/09 01:16:58;;;;;;;13.65;12.38;;;5.30;95.40;;;;;;5127995;27;20045;-84
2022/01/09 01:19:24;;;;;;;13.70;12.32;;;5.30;95.30;;;;;;5099351;27;20054;-83
2022/01/09 01:21:49;;;;;;;15.52;13.30;;;5.40;95.40;;;;;;5122352;27;20054;-83
2022/01/09 01:24:17;;;;;;;15.48;13.98;;;5.40;95.40;;;;;;5115589;27;20038;-83
2022/01/09 01:26:43;;;;;;;14.40;12.00;;;5.30;95.40;;;;;;5132445;27;20099;-83
2022/01/09 01:29:10;;;;;;;13.18;11.82;;;5.40;95.40;;;;;;5120810;27;20046;-80
2022/01/09 01:31:35;;;;;;;13.65;12.25;;;5.40;95.40;;;;;;5096350;27;20050;-81
2022/01/09 01:34:01;;;;;;;14.70;13.10;;;5.40;95.40;;;;;;5140967;27;20042;-81
2022/01/09 01:36:27;;;;;;;13.15;11.80;;;5.40;95.50;;;;;;5102956;27;20039;-82
2022/01/09 01:38:52;;;;;;;13.23;11.93;;;5.40;95.50;;;;;;5075510;27;20133;-83
2022/01/09 01:41:18;;;;;;;12.23;11.02;;;5.40;95.40;;;;;;5089384;27;20067;-81
2022/01/09 01:43:44;;;;;;;13.02;11.60;;;5.40;95.50;;;;;;5106801;27;20129;-81
2022/01/09 01:46:09;;;;;;;12.65;11.25;;;5.40;95.80;;;;;;5105919;27;20395;-82
2022/01/09 01:48:35;;;;;;;13.45;12.05;;;5.40;95.50;;;;;;5140817;27;20050;-82
2022/01/09 01:51:01;;;;;;;12.48;11.18;;;5.40;95.50;;;;;;5089424;27;20057;-85
2022/01/09 01:53:27;;;;;;;12.10;10.93;;;5.40;95.50;;;;;;5089307;27;20077;-82
2022/01/09 01:55:55;;;;;;;12.77;11.57;;;5.40;95.50;;;;;;5106370;27;20046;-82
2022/01/09 01:58:21;;;;;;;12.95;11.65;;;5.40;95.50;;;;;;5086039;27;20059;-81
2022/01/09 02:00:47;;;;;;;12.60;11.27;;;5.50;95.50;;;;;;5119895;27;20051;-82
2022/01/09 02:03:12;;;;;;;11.68;10.48;;;5.40;95.50;;;;;;5102617;27;20035;-82
2022/01/09 02:05:41;;;;;;;12.82;11.52;;;5.40;95.60;;;;;;5085857;27;20718;-81
2022/01/09 02:08:06;;;;;;;12.27;10.98;;;5.50;95.60;;;;;;5085356;27;20051;-83
2022/01/09 02:10:32;;;;;;;14.73;11.77;;;5.50;95.60;;;;;;5086247;27;20104;-82
2022/01/09 02:12:58;;;;;;;12.55;11.25;;;5.50;95.60;;;;;;5086123;27;20487;-82
2022/01/09 02:15:34;;;;;;;11.13;10.02;;;5.50;95.60;;;;;;5085436;27;20039;-81
2022/01/09 02:18:02;;;;;;;11.68;10.48;;;5.50;95.60;;;;;;5102434;27;20495;-82
2022/01/09 02:20:28;;;;;;;11.85;10.65;;;5.50;95.90;;;;;;5101309;27;20126;-82
2022/01/09 02:22:53;;;;;;;12.93;10.25;;;5.50;95.60;;;;;;5082485;28;20436;-82
2022/01/09 02:25:22;;;;;;;12.35;10.40;;;5.50;95.70;;;;;;5109440;27;20043;-82
2022/01/09 02:27:49;;;;;;;11.60;9.45;;;5.50;95.60;;;;;;5103109;27;20054;-83
2022/01/09 02:30:14;;;;;;;11.20;9.40;;;5.50;95.60;;;;;;5081528;28;20391;-82
2022/01/09 02:32:40;;;;;;;10.40;9.07;;;5.50;95.70;;;;;;5084816;27;20054;-82
2022/01/09 02:35:06;;;;;;;10.73;9.63;;;5.50;95.70;;;;;;5102440;27;20043;-87
2022/01/09 02:37:32;;;;;;;9.93;8.90;;;5.50;95.70;;;;;;5102593;27;20051;-82
2022/01/09 02:39:58;;;;;;;10.00;8.93;;;5.60;95.70;;;;;;5103472;27;20047;-83
2022/01/09 02:42:26;;;;;;;9.68;8.50;;;5.60;95.70;;;;;;5082086;28;20070;-81
2022/01/09 02:44:52;;;;;;;10.35;8.60;;;5.60;95.70;;;;;;5083131;28;20043;-81
2022/01/09 02:47:18;;;;;;;10.25;8.60;;;5.50;95.70;;;;;;5083271;28;20407;-84
2022/01/09 02:49:48;;;;;;;8.65;7.78;;;5.60;95.80;;;;;;5065899;28;20047;-82
2022/01/09 02:52:47;;;;;;;10.85;7.50;;;5.60;95.80;;;;;;5082417;28;20043;-83
2022/01/09 02:55:14;;;;;;;8.70;7.18;;;5.60;95.80;;;;;;5085637;28;20399;-83
2022/01/09 02:57:41;;;;;;;9.27;7.53;;;5.60;95.80;;;;;;5064047;28;20406;-82
2022/01/09 03:00:12;;;;;;;9.95;7.30;;;5.60;95.80;;;;;;5063193;28;20047;-82
2022/01/09 03:02:38;;;;;;;12.45;7.20;;;5.60;95.80;;;;;;5082147;28;20123;-82
2022/01/09 03:05:04;;;;;;;10.20;7.70;;;5.70;95.80;;;;;;5081611;28;20079;-81
2022/01/09 03:07:30;;;;;;;10.23;6.82;;;5.60;95.80;;;;;;5081309;28;20051;-82
2022/01/09 03:09:56;;;;;;;11.20;7.43;;;5.70;95.80;;;;;;5081865;28;20081;-82
2022/01/09 03:12:23;;;;;;;11.50;6.38;;;5.70;95.90;;;;;;5081223;28;20051;-82
2022/01/09 03:14:49;;;;;;;16.13;7.30;;;5.70;95.90;;;;;;5081551;28;20485;-82
2022/01/09 03:17:14;;;;;;;9.95;5.35;;;5.70;95.90;;;;;;5098200;28;20054;-86
2022/01/09 03:19:40;;;;;;;14.30;5.85;;;5.70;95.90;;;;;;5081701;28;20051;-82
2022/01/09 03:22:06;;;;;;;13.77;4.88;;;5.80;96.00;;;;;;5098372;28;20047;-82
2022/01/09 03:24:31;;;;;;;18.30;5.70;;;5.80;96.00;;;;;;5064533;28;20051;-82
2022/01/09 03:26:57;;;;;;;24.25;5.47;;;5.80;96.00;;;;;;5098248;28;20046;-82
2022/01/09 03:29:23;;;;;;;18.75;4.60;;;5.80;96.00;;;;;;5064481;28;20097;-82
2022/01/09 03:31:48;;;;;;;18.40;4.68;;;5.80;96.10;;;;;;5081781;28;20059;-83
2022/01/09 03:34:14;;;;;;;14.68;4.35;;;5.80;96.10;;;;;;5080455;28;20052;-83
2022/01/09 03:36:40;;;;;;;21.83;5.40;;;5.90;96.10;;;;;;5063405;28;20040;-83
2022/01/09 03:39:05;;;;;;;23.23;5.45;;;5.90;96.10;;;;;;5084842;28;20046;-83
2022/01/09 03:41:31;;;;;;;23.88;5.13;;;5.90;96.10;;;;;;5119208;28;20064;-83
2022/01/09 03:43:57;;;;;;;19.08;4.88;;;5.90;96.20;;;;;;5102311;28;20427;-82
2022/01/09 03:46:22;;;;;;;21.15;5.03;;;5.90;96.10;;;;;;5101711;28;20695;-84
2022/01/09 03:48:48;;;;;;;18.42;5.25;;;5.90;96.10;;;;;;5102530;28;20484;-83
2022/01/09 03:51:14;;;;;;;18.90;4.57;;;5.90;96.10;;;;;;5119300;28;20055;-83
2022/01/09 03:53:40;;;;;;;22.40;5.20;;;6.00;96.10;;;;;;5084723;28;20051;-83
2022/01/09 03:56:06;;;;;;;25.27;6.43;;;6.00;96.10;;;;;;5085154;28;20067;-82
2022/01/09 03:58:31;;;;;;;27.20;7.65;;;6.00;96.10;;;;;;5067777;28;20056;-82
2022/01/09 04:00:57;;;;;;;28.65;6.72;;;6.00;96.20;;;;;;5102109;28;20377;-82
2022/01/09 04:03:23;;;;;;;27.98;5.97;;;6.00;96.20;;;;;;5084747;28;20043;-83
2022/01/09 04:05:48;;;;;;;26.38;6.03;;;6.00;96.20;;;;;;5085055;28;20051;-82
2022/01/09 04:08:14;;;;;;;26.13;5.97;;;6.00;96.30;;;;;;5090305;27;20517;-83
2022/01/09 04:10:42;;;;;;;31.88;6.70;;;6.00;96.20;;;;;;5101679;28;20048;-82
2022/01/09 04:13:10;;;;;;;24.15;5.25;;;6.00;96.20;;;;;;5085491;28;20488;-82
2022/01/09 04:15:35;;;;;;;26.88;5.57;;;6.00;96.20;;;;;;5086883;27;20046;-83
2022/01/09 04:18:02;;;;;;;24.98;5.70;;;6.00;96.20;;;;;;5088632;27;20055;-83
2022/01/09 04:20:29;;;;;;;28.75;5.55;;;6.10;96.20;;;;;;5088284;27;20047;-83
2022/01/09 04:22:56;;;;;;;22.58;6.20;;;6.10;96.20;;;;;;5088778;27;20047;-83
2022/01/09 04:25:21;;;;;;;23.58;5.90;;;6.10;96.20;;;;;;5105201;27;20149;-83
2022/01/09 04:27:47;;;;;;;27.70;5.40;;;6.10;96.20;;;;;;5105203;27;20074;-83
2022/01/09 04:30:13;;;;;;;18.48;5.00;;;6.10;96.20;;;;;;5089102;27;20061;-82
2022/01/09 04:32:39;;;;;;;20.55;5.05;;;6.10;96.20;;;;;;5105030;27;20050;-82
2022/01/09 04:35:05;;;;;;;24.85;5.32;;;6.10;96.20;;;;;;5087949;27;20047;-83
2022/01/09 04:37:33;;;;;;;21.52;5.03;;;6.10;96.20;;;;;;5105323;27;20043;-83
2022/01/09 04:39:59;;;;;;;20.52;5.78;;;6.10;96.20;;;;;;5088817;27;20086;-83
2022/01/09 04:42:32;;;;;;;26.13;5.40;;;6.10;96.20;;;;;;5105191;27;20046;-83
2022/01/09 04:44:58;;;;;;;24.25;4.65;;;6.20;96.30;;;;;;5139471;27;20391;-83
2022/01/09 04:47:24;;;;;;;22.33;5.32;;;6.20;96.50;;;;;;5121607;27;20043;-83
2022/01/09 04:49:50;;;;;;;16.33;4.45;;;6.10;96.20;;;;;;5086543;27;20058;-83
2022/01/09 04:52:19;;;;;;;17.88;4.57;;;6.20;96.20;;;;;;5104780;27;20058;-84
2022/01/09 04:54:46;;;;;;;22.35;4.40;;;6.20;96.10;;;;;;5106117;27;20047;-83
2022/01/09 04:57:12;;;;;;;21.85;4.43;;;6.20;96.10;;;;;;5105961;27;20043;-82
2022/01/09 04:59:37;;;;;;;21.23;4.43;;;6.20;96.10;;;;;;5108707;27;20447;-83
2022/01/09 05:02:04;;;;;;;18.58;3.58;;;6.20;96.10;;;;;;5108926;27;20463;-82
2022/01/09 05:04:29;;;;;;;17.10;3.80;;;6.20;96.10;;;;;;5090458;27;20421;-86
2022/01/09 05:06:55;;;;;;;18.27;3.90;;;6.20;96.00;;;;;;5090199;27;20039;-82
2022/01/09 05:09:21;;;;;;;20.80;4.25;;;6.20;96.00;;;;;;5090511;27;20047;-82
2022/01/09 05:11:46;;;;;;;12.68;3.05;;;6.20;96.00;;;;;;5090448;27;20043;-83
2022/01/09 05:14:12;;;;;;;18.83;3.00;;;6.20;95.90;;;;;;5107936;27;20432;-83
2022/01/09 05:16:42;;;;;;;18.17;4.53;;;6.20;95.90;;;;;;5106220;27;20046;-84
2022/01/09 05:19:17;;;;;;;11.70;2.95;;;6.20;95.90;;;;;;5106886;27;20082;-82
2022/01/09 05:21:42;;;;;;;12.55;3.10;;;6.10;95.80;;;;;;5109279;27;20050;-83
2022/01/09 05:24:08;;;;;;;16.13;3.13;;;6.20;95.80;;;;;;5090143;27;20092;-82
2022/01/09 05:26:34;;;;;;;9.70;2.78;;;6.10;96.10;;;;;;5090135;27;20038;-87
2022/01/09 05:29:00;;;;;;;16.35;3.35;;;6.10;95.80;;;;;;5123746;27;20077;-82
2022/01/09 05:31:26;;;;;;;20.40;3.35;;;6.10;95.70;;;;;;5090516;27;20490;-82
2022/01/09 05:33:52;;;;;;;11.65;3.08;;;6.20;95.70;;;;;;5089886;27;20106;-83
2022/01/09 05:36:17;;;;;;;19.38;3.67;;;6.10;95.70;;;;;;5107413;27;20088;-82
2022/01/09 05:38:43;;;;;;;16.05;3.63;;;6.10;95.70;;;;;;5090484;27;20504;-83
2022/01/09 05:41:09;;;;;;;16.08;4.07;;;6.10;95.60;;;;;;5108247;27;20046;-82
2022/01/09 05:43:35;;;;;;;19.02;4.32;;;6.10;95.70;;;;;;5090424;27;20051;-85
2022/01/09 05:46:00;;;;;;;14.75;3.38;;;6.10;95.60;;;;;;5107129;27;20049;-82
2022/01/09 05:48:26;;;;;;;18.13;3.28;;;6.10;95.60;;;;;;5124366;27;20038;-82
2022/01/09 05:50:52;;;;;;;12.15;3.70;;;6.10;95.60;;;;;;5106840;27;20054;-82
2022/01/09 05:53:17;;;;;;;17.45;3.55;;;6.10;95.60;;;;;;5123310;27;20118;-82
2022/01/09 05:55:43;;;;;;;16.13;4.40;;;6.10;95.60;;;;;;5106474;27;20038;-83
2022/01/09 05:58:09;;;;;;;13.30;3.22;;;6.10;95.60;;;;;;5106918;27;20075;-81
2022/01/09 06:00:34;;;;;;;18.88;3.70;;;6.10;95.60;;;;;;5106651;27;20050;-82
2022/01/09 06:03:00;;;;;;;15.68;3.65;;;6.10;95.90;;;;;;5089730;27;20043;-82
2022/01/09 06:05:26;;;;;;;12.32;2.65;;;6.10;95.60;;;;;;5107093;27;20042;-81
2022/01/09 06:07:51;;;;;;;14.65;3.28;;;6.10;95.60;;;;;;5090332;27;20440;-82
2022/01/09 06:10:17;;;;;;;16.48;3.35;;;6.10;95.60;;;;;;5089864;27;20042;-81
2022/01/09 06:12:43;;;;;;;17.27;3.25;;;6.10;95.60;;;;;;5090045;27;20099;-83
2022/01/09 06:15:09;;;;;;;14.85;3.72;;;6.10;95.60;;;;;;5124193;27;20046;-82
2022/01/09 06:17:36;;;;;;;14.73;3.00;;;6.10;95.60;;;;;;5124280;27;20047;-82
2022/01/09 06:20:03;;;;;;;16.52;3.22;;;6.10;95.50;;;;;;5106887;27;20053;-82
2022/01/09 06:22:28;;;;;;;16.30;3.00;;;6.00;95.50;;;;;;5090126;27;20087;-82
2022/01/09 06:24:54;;;;;;;17.73;3.42;;;6.10;95.50;;;;;;5123694;27;20565;-82
2022/01/09 06:27:21;;;;;;;13.13;3.00;;;6.00;95.50;;;;;;5090181;27;20056;-82
2022/01/09 06:29:47;;;;;;;11.00;3.22;;;6.00;95.40;;;;;;5090200;27;20129;-83
2022/01/09 06:32:13;;;;;;;12.13;2.55;;;6.00;95.40;;;;;;5089593;27;20517;-82
2022/01/09 06:34:40;;;;;;;15.30;2.50;;;6.00;95.40;;;;;;5089802;27;20042;-82
2022/01/09 06:37:05;;;;;;;11.00;2.70;;;6.00;95.40;;;;;;5106389;27;20510;-82
2022/01/09 06:39:31;;;;;;;14.45;2.88;;;6.00;95.40;;;;;;5106243;27;20043;-82
2022/01/09 06:41:57;;;;;;;8.32;2.63;;;6.00;95.30;;;;;;5089837;27;20482;-82
2022/01/09 06:44:23;;;;;;;10.35;2.80;;;5.90;95.30;;;;;;5089946;27;20075;-82
2022/01/09 06:46:48;;;;;;;10.68;2.30;;;5.90;95.30;;;;;;5106196;27;20049;-83
2022/01/09 06:49:14;;;;;;;15.63;3.58;;;5.90;95.20;;;;;;5106668;27;20068;-81
2022/01/09 06:51:40;;;;;;;11.30;2.47;;;6.00;95.20;;;;;;5106712;27;20049;-82
2022/01/09 06:54:05;;;;;;;13.02;3.10;;;5.90;95.20;;;;;;5090260;27;20042;-82
2022/01/09 06:56:31;;;;;;;12.38;2.45;;;5.90;95.20;;;;;;5089847;27;20046;-81
2022/01/09 06:58:57;;;;;;;16.10;2.50;;;5.90;95.10;;;;;;5106791;27;20058;-82
2022/01/09 07:01:25;;;;;;;10.73;2.50;;;5.90;95.10;;;;;;5107281;27;20054;-81
2022/01/09 07:03:51;;;;;;;12.40;3.15;;;5.80;95.10;;;;;;5111174;27;20039;-82
2022/01/09 07:06:16;;;;;;;10.82;2.25;;;5.80;95.00;;;;;;5125349;27;20039;-80
2022/01/09 07:08:42;;;;;;;7.40;1.98;;;5.80;95.00;;;;;;5156496;27;20043;-81
2022/01/09 07:11:08;;;;;;;10.05;2.45;;;5.70;95.00;;;;;;5153305;27;20406;-82
2022/01/09 07:13:33;;;;;;;10.02;2.90;;;5.80;95.00;;;;;;5098286;27;20412;-82
2022/01/09 07:15:59;;;;;;;11.05;2.72;;;5.80;95.00;;;;;;5099553;27;20107;-82
2022/01/09 07:18:24;;;;;;;12.55;2.90;;;5.80;95.00;;;;;;5129812;27;20058;-81
2022/01/09 07:20:51;;;;;;;10.57;2.20;;;5.80;95.00;;;;;;5099366;27;20053;-88
2022/01/09 07:23:16;;;;;;;8.95;2.20;;;5.80;94.90;;;;;;5125257;27;20102;-81
2022/01/09 07:25:42;;;;;;;10.00;1.92;;;5.80;94.90;;;;;;5124024;27;20038;-82
2022/01/09 07:28:08;;;;;;;11.90;2.45;;;5.70;94.80;;;;;;5100942;27;20095;-81
2022/01/09 07:30:33;;;;;;;9.30;2.35;;;5.70;94.80;;;;;;5127454;27;20047;-82
2022/01/09 07:32:59;;;;;;;12.45;2.42;;;5.70;94.90;;;;;;5093229;27;20097;-82
2022/01/09 07:35:25;;;;;;;8.32;2.00;;;5.70;94.80;;;;;;5128086;27;20039;-81
2022/01/09 07:37:51;;;;;;;11.38;2.30;;;5.70;94.80;;;;;;5094478;27;20046;-82
2022/01/09 07:40:17;;;;;;;14.23;3.25;;;5.70;94.90;;;;;;5110878;27;20049;-81
2022/01/09 07:42:46;;;;;;;12.05;2.35;;;5.70;94.90;;;;;;5129593;27;20042;-82
2022/01/09 07:45:12;;;;;;;12.48;2.60;;;5.70;94.90;;;;;;5095257;27;20043;-81
2022/01/09 07:47:37;;;;;;;10.38;2.13;;;5.70;94.90;;;;;;5094542;27;20114;-81
2022/01/09 07:50:04;;;;;;;10.07;2.30;;;5.70;94.90;;;;;;5099194;27;20049;-81
2022/01/09 07:52:30;;;;;;;14.32;2.63;;;5.70;94.90;;;;;;5124833;27;20053;-81
2022/01/09 07:54:57;;;;;;;8.23;2.67;;;5.60;94.80;;;;;;5108100;27;20039;-90
2022/01/09 07:57:22;;;;;;;8.32;2.40;;;5.70;94.90;;;;;;5126036;27;20039;-81
2022/01/09 07:59:48;;;;;;;8.85;2.45;;;5.70;94.90;;;;;;5125271;27;20058;-81
2022/01/09 08:02:14;;;;;;;9.82;2.45;;;5.60;94.90;;;;;;5130469;27;20148;-81
2022/01/09 08:04:40;;;;;;;7.63;2.38;;;5.70;94.90;;;;;;5110636;27;20150;-81
2022/01/09 08:07:05;;;;;;;8.43;2.03;;;5.60;94.80;;;;;;5092915;27;20098;-80
2022/01/09 08:09:31;;;;;;;12.50;2.05;;;5.70;94.80;;;;;;5109993;27;20051;-81
2022/01/09 08:11:58;;;;;;;5.28;1.70;;;5.60;94.80;;;;;;5092996;27;20050;-87
2022/01/09 08:14:23;;;;;;;9.60;2.38;;;5.70;94.80;;;;;;5109632;27;20034;-80
2022/01/09 08:16:49;;;;;;;7.95;1.98;;;5.70;94.80;;;;;;5092174;27;20073;-82
2022/01/09 08:19:15;;;;;;;9.85;2.35;;;5.70;94.80;;;;;;5126582;27;20050;-81
2022/01/09 08:21:41;;;;;;;7.80;1.50;;;5.70;94.80;;;;;;5109995;27;20058;-80
2022/01/09 08:24:06;;;;;;;6.05;2.13;;;5.70;94.80;;;;;;5103049;27;20046;-81
2022/01/09 08:26:35;;;;;;;9.32;2.85;;;5.70;95.10;;;;;;5097828;27;20076;-81
2022/01/09 08:29:02;;;;;;;8.60;2.10;;;5.70;94.80;;;;;;5106085;27;20043;-85
2022/01/09 08:31:28;;;;;;;9.20;1.85;;;5.70;94.80;;;;;;5102992;27;20047;-82
2022/01/09 08:33:54;;;;;;;7.63;1.75;;;5.70;94.80;;;;;;5105769;27;20061;-83
2022/01/09 08:36:20;;;;;;;8.55;1.90;;;5.60;94.80;;;;;;5083475;27;20489;-83
2022/01/09 08:38:47;;;;;;;7.60;1.83;;;5.70;94.80;;;;;;5107619;27;20115;-82
2022/01/09 08:41:12;;;;;;;7.65;1.83;;;5.70;94.90;;;;;;5121716;27;20050;-83
2022/01/09 08:43:38;;;;;;;6.63;2.00;;;5.70;94.90;;;;;;5122395;27;20050;-82
2022/01/09 08:46:04;;;;;;;7.93;2.08;;;5.70;94.90;;;;;;5104081;27;20517;-86
2022/01/09 08:48:30;;;;;;;11.80;2.72;;;5.70;94.90;;;;;;5085900;27;20046;-86
2022/01/09 08:50:56;;;;;;;9.80;2.20;;;5.80;94.90;;;;;;5115597;27;20034;-82
2022/01/09 08:53:21;;;;;;;8.10;2.40;;;5.80;94.90;;;;;;5114449;27;20039;-80
2022/01/09 08:55:47;;;;;;;11.68;2.55;;;5.80;94.90;;;;;;5094876;27;20064;-80
2022/01/09 08:58:13;;;;;;;8.15;3.00;;;5.80;94.90;;;;;;5094598;27;20051;-81
2022/01/09 09:00:38;;;;;;;9.88;2.38;;;5.80;94.90;;;;;;5115257;27;20537;-82
2022/01/09 09:03:04;;;;;;;12.45;3.40;;;5.80;94.90;;;;;;5135366;27;20066;-83
2022/01/09 09:05:30;;;;;;;11.05;2.88;;;5.90;94.90;;;;;;5114877;27;20043;-83
2022/01/09 09:07:58;;;;;;;9.98;3.28;;;5.90;94.90;;;;;;5080808;27;20551;-83
2022/01/09 09:10:24;;;;;;;10.90;3.17;;;5.90;94.90;;;;;;5115615;27;20126;-79
2022/01/09 09:12:49;;;;;;;10.40;2.53;;;5.90;94.80;;;;;;5096902;27;20092;-79
2022/01/09 09:15:15;;;;;;;10.02;2.50;;;5.90;94.80;;;;;;5108633;27;20142;-77
2022/01/09 09:17:41;;;;;;;12.75;2.70;;;5.90;94.80;;;;;;5093315;27;20047;-79
2022/01/09 09:20:07;;;;;;;13.38;3.00;;;5.90;94.80;;;;;;5110802;28;20044;-83
2022/01/09 09:22:34;;;;;;;8.00;2.67;;;6.00;94.80;;;;;;5106282;27;20137;-82
2022/01/09 09:25:00;;;;;;;11.20;2.97;;;6.10;95.10;;;;;;5081425;27;20047;-77
2022/01/09 09:27:30;;;;;;;13.68;3.08;;;6.20;94.80;;;;;;5078684;28;20039;-76
2022/01/09 09:29:57;;;;;;;12.05;3.22;;;6.10;94.60;;;;;;5096092;27;20099;-76
2022/01/09 09:32:23;;;;;;;11.88;3.53;;;6.20;94.70;;;;;;5099387;27;20046;-76
2022/01/09 09:34:49;;;;;;;9.13;2.85;;;6.20;94.70;;;;;;5091066;28;20052;-76
2022/01/09 09:37:14;;;;;;;10.60;3.20;;;6.20;94.60;;;;;;5092563;28;20088;-78
2022/01/09 09:39:40;;;;;;;8.48;2.40;;;6.20;94.60;;;;;;5096652;27;20479;-77
2022/01/09 09:42:06;;;;;;;11.82;3.30;;;6.30;94.60;;;;;;5096982;27;20057;-78
2022/01/09 09:44:34;;;;;;;12.57;3.58;;;6.20;94.50;;;;;;5097691;27;20605;-80
2022/01/09 09:47:00;;;;;;;11.38;2.90;;;6.40;94.50;;;;;;5079942;28;20088;-79
2022/01/09 09:49:25;;;;;;;11.93;3.50;;;6.30;94.50;;;;;;5091305;28;20047;-79
2022/01/09 09:51:51;;;;;;;12.13;3.45;;;6.40;94.50;;;;;;5078887;28;20040;-78
2022/01/09 09:54:17;;;;;;;16.50;3.67;;;6.40;94.40;;;;;;5082521;27;20043;-80
2022/01/09 09:56:43;;;;;;;13.00;4.18;;;6.40;94.40;;;;;;5082151;27;20122;-80
2022/01/09 09:59:08;;;;;;;15.13;3.33;;;6.50;94.40;;;;;;5133553;27;20055;-80
2022/01/09 10:01:35;;;;;;;14.38;4.07;;;6.50;94.40;;;;;;5099560;27;20127;-81
2022/01/09 10:04:05;;;;;;;17.05;4.00;;;6.50;94.30;;;;;;5100719;27;20043;-80
2022/01/09 10:06:44;;;;;;;11.80;3.30;;;6.60;94.30;;;;;;5098283;27;20096;-82
2022/01/09 10:09:11;;;;;;;15.20;3.75;;;6.60;94.20;;;;;;5116503;27;20134;-79
2022/01/09 10:11:50;;;;;;;15.70;4.60;;;6.70;94.20;;;;;;5115890;27;20078;-79
2022/01/09 10:14:18;;;;;;;15.20;4.05;;;6.70;94.10;;;;;;5096473;27;20043;-83
2022/01/09 10:17:07;;;;;;;11.00;3.40;;;6.80;94.10;;;;;;5090869;27;20048;-80
2022/01/09 10:19:55;;;;;;;16.80;3.97;;;6.80;94.00;;;;;;5129622;27;20088;-79
2022/01/09 10:22:22;;;;;;;11.93;3.42;;;6.90;94.00;;;;;;5097469;27;20054;-80
2022/01/09 10:24:48;;;;;;;13.82;3.70;;;6.90;93.90;;;;;;5099115;27;20054;-78
2022/01/09 10:27:50;;;;;;;11.15;4.32;;;6.90;93.90;;;;;;5098742;27;20126;-78
2022/01/09 10:30:17;;;;;;;16.65;3.75;;;7.00;93.70;;;;;;5021553;28;20076;-77
2022/01/09 10:32:43;;;;;;;11.55;3.85;;;7.10;93.80;;;;;;5066927;27;20043;-78
2022/01/09 10:35:18;;;;;;;16.35;3.97;;;7.10;93.80;;;;;;5095452;28;20046;-77
2022/01/09 10:37:49;;;;;;;16.63;3.47;;;7.20;93.70;;;;;;5113549;27;20075;-79
2022/01/09 10:40:22;;;;;;;15.43;3.55;;;7.20;93.70;;;;;;5099097;27;20047;-82
2022/01/09 10:43:12;;;;;;;12.55;3.88;;;7.30;93.70;;;;;;5104000;27;20058;-77
2022/01/09 10:45:52;;;;;;;14.98;3.13;;;7.40;93.50;;;;;;5095008;27;20047;-81
2022/01/09 10:48:22;;;;;;;14.10;3.00;;;7.40;93.50;;;;;;5094949;28;20053;-81
2022/01/09 10:50:51;;;;;;;13.93;3.13;;;7.50;93.40;;;;;;5090264;27;20086;-82
2022/01/09 10:53:18;;;;;;;15.38;3.28;;;7.50;93.30;;;;;;5082626;28;20047;-80
2022/01/09 10:55:45;;;;;;;15.20;4.38;;;7.50;93.30;;;;;;5112680;28;20035;-79
2022/01/09 10:58:20;;;;;;;11.80;4.55;;;7.50;93.20;;;;;;5098327;27;20051;-81
2022/01/09 11:00:46;;;;;;;17.77;3.40;;;7.50;93.10;;;;;;5079587;28;20082;-80
2022/01/09 11:03:12;;;;;;;9.73;3.60;;;7.50;93.20;;;;;;5082321;28;20054;-80
2022/01/09 11:05:38;;;;;;;13.45;3.63;;;7.50;93.10;;;;;;5115913;28;20126;-82
2022/01/09 11:08:04;;;;;;;13.57;3.40;;;7.50;93.10;;;;;;5112741;28;20116;-82
2022/01/09 11:10:30;;;;;;;12.65;3.20;;;7.40;93.10;;;;;;5098577;28;20439;-80
2022/01/09 11:12:59;;;;;;;19.55;4.22;;;7.50;93.10;;;;;;5097597;28;20058;-85
2022/01/09 11:15:29;;;;;;;10.25;2.22;;;7.50;93.00;;;;;;5072665;28;20407;-84
2022/01/09 11:18:01;;;;;;;11.70;3.03;;;7.90;93.50;;;;;;5087511;28;20043;-80
2022/01/09 11:20:27;;;;;;;14.68;3.60;;;8.20;93.20;;;;;;5082510;28;20046;-85
2022/01/09 11:22:53;;;;;;;14.43;3.22;;;8.40;92.50;;;;;;5092228;28;20059;-78
2022/01/09 11:25:25;;;;;;;13.65;3.55;;;8.60;92.10;;;;;;5091598;28;20075;-76
2022/01/09 11:28:14;;;;;;;8.87;2.80;;;8.70;91.80;;;;;;5129926;28;20047;-78
2022/01/09 11:30:57;;;;;;;10.52;2.28;;;8.80;91.30;;;;;;5092318;28;20500;-78
2022/01/09 11:33:44;;;;;;;9.73;2.50;;;8.80;91.30;;;;;;5113879;28;20051;-77
2022/01/09 11:36:28;;;;;;;14.75;2.65;;;8.70;91.40;;;;;;5114304;28;20054;-77
2022/01/09 11:39:17;;;;;;;8.60;2.47;;;8.60;91.70;;;;;;5131967;28;20043;-77
2022/01/09 11:41:43;;;;;;;13.88;3.05;;;8.50;91.30;;;;;;5099459;28;20050;-82
2022/01/09 11:44:11;;;;;;;12.27;3.13;;;8.40;91.50;;;;;;5113590;28;20046;-80
2022/01/09 11:46:57;;;;;;;9.13;2.83;;;8.60;91.50;;;;;;5080794;28;20039;-81
2022/01/09 11:49:23;;;;;;;12.93;2.65;;;8.80;91.30;;;;;;5096666;28;20055;-79
2022/01/09 11:51:50;;;;;;;10.52;3.22;;;9.00;91.10;;;;;;5081091;28;20051;-77
2022/01/09 11:54:17;;;;;;;10.48;3.50;;;9.50;90.80;;;;;;5129938;28;20043;-77
2022/01/09 11:56:46;;;;;;;11.60;3.03;;;9.90;90.20;;;;;;5111160;28;20054;-78
2022/01/09 11:59:31;;;;;;;11.82;3.17;;;10.30;89.40;;;;;;5097597;27;20098;-77
2022/01/09 12:02:29;;;;;;;10.60;2.95;;;10.70;88.00;;;;;;5118206;27;20088;-78
2022/01/09 12:05:01;;;;;;;9.60;2.70;;;10.90;87.60;;;;;;5118376;27;20051;-77
2022/01/09 12:07:33;;;;;;;13.30;2.72;;;11.10;87.50;;;;;;5119280;27;20086;-77
2022/01/09 12:10:00;;;;;;;11.05;3.63;;;11.60;86.50;;;;;;5134455;27;20047;-78
2022/01/09 12:12:32;;;;;;;9.85;2.85;;;12.00;85.60;;;;;;5099346;28;20082;-83
2022/01/09 12:15:02;;;;;;;10.02;2.72;;;12.30;84.20;;;;;;5127449;27;20043;-79
2022/01/09 12:17:34;;;;;;;13.85;3.10;;;12.50;83.90;;;;;;5105139;27;20122;-79
2022/01/09 12:20:19;;;;;;;10.02;3.30;;;12.70;82.80;;;;;;5118981;27;20075;-80
2022/01/09 12:22:51;;;;;;;15.57;4.25;;;12.50;82.90;;;;;;5111430;27;20051;-79
2022/01/09 12:25:32;;;;;;;11.63;2.65;;;12.10;83.20;;;;;;5118415;27;20051;-79
2022/01/09 12:28:10;;;;;;;14.02;3.65;;;11.80;83.40;;;;;;5125092;27;20031;-75
2022/01/09 12:30:38;;;;;;;10.65;3.05;;;11.40;84.30;;;;;;5116156;27;20077;-77
2022/01/09 12:33:06;;;;;;;13.77;3.25;;;11.10;85.30;;;;;;5113556;27;20126;-76
2022/01/09 12:35:32;;;;;;;7.80;2.35;;;10.80;85.70;;;;;;5115751;27;20061;-75
2022/01/09 12:38:00;;;;;;;9.32;2.33;;;10.50;86.40;;;;;;5100374;27;20043;-76
2022/01/09 12:40:31;;;;;;;6.70;2.10;;;10.20;86.90;;;;;;5117184;27;20051;-76
2022/01/09 12:42:57;;;;;;;8.73;2.10;;;10.00;87.20;;;;;;5114431;27;20052;-76
2022/01/09 12:45:25;;;;;;;9.90;2.47;;;9.90;87.80;;;;;;5108249;27;20074;-79
2022/01/09 12:47:52;;;;;;;6.40;1.92;;;9.70;88.10;;;;;;5103548;27;20528;-81